Wetterdaten: Woche 02.10.17 - 08.10.17 (KW40)
Datum Zeit Temp. A. Pool Temp. Feuchte A. Luftdruck Regen Wind Richtung Sonnenschein ET UV Solar Taupunkt Windchill Windben Empfang
02.10.2017 00:00 12,0 C 13,3 C 95 % 1021,6 hPa 0,0 l/m 2,1 km/h (1 Bft) O 0,00 h 0,000 mm 0,0 UV-I 0 W/m 11,3 C 12,0 C 3,5 km/h (1 Bft) 98,16 %
02.10.2017 01:00 10,9 C 13,3 C 96 % 1021,3 hPa 0,0 l/m 1,2 km/h (1 Bft) O 0,00 h 0,000 mm 0,0 UV-I 0 W/m 10,4 C 10,9 C 2,0 km/h (1 Bft) 98,60 %
02.10.2017 02:00 10,9 C 13,3 C 97 % 1021,3 hPa 0,0 l/m 0,0 km/h (0 Bft) N 0,00 h 0,000 mm 0,0 UV-I 0 W/m 10,5 C 10,9 C 0,2 km/h (0 Bft) 96,24 %
02.10.2017 03:00 11,3 C 13,3 C 98 % 1020,9 hPa 0,0 l/m 1,6 km/h (1 Bft) O-NO 0,00 h 0,000 mm 0,0 UV-I 0 W/m 11,0 C 11,3 C 2,4 km/h (1 Bft) 98,46 %
02.10.2017 04:00 11,3 C 13,3 C 98 % 1020,7 hPa 0,0 l/m 3,0 km/h (1 Bft) O-NO 0,00 h 0,000 mm 0,0 UV-I 0 W/m 11,0 C 11,3 C 4,9 km/h (1 Bft) 98,41 %
02.10.2017 05:00 11,1 C 13,3 C 98 % 1020,7 hPa 0,0 l/m 1,4 km/h (1 Bft) O-NO 0,00 h 0,000 mm 0,0 UV-I 0 W/m 10,8 C 11,1 C 3,1 km/h (1 Bft) 98,21 %
02.10.2017 06:00 10,9 C 13,3 C 98 % 1020,8 hPa 0,0 l/m 1,6 km/h (1 Bft) O-SO 0,00 h 0,000 mm 0,0 UV-I 0 W/m 10,6 C 10,9 C 3,1 km/h (1 Bft) 97,39 %
02.10.2017 07:00 11,1 C 13,3 C 97 % 1020,8 hPa 0,0 l/m 1,9 km/h (1 Bft) O-SO 0,00 h 0,000 mm 0,0 UV-I 11 W/m 10,6 C 11,1 C 3,4 km/h (1 Bft) 99,30 %
02.10.2017 08:00 10,9 C 13,3 C 97 % 1021,0 hPa 0,0 l/m 4,4 km/h (1 Bft) O-NO 0,00 h 0,000 mm 0,0 UV-I 43 W/m 10,5 C 10,9 C 6,5 km/h (2 Bft) 98,35 %
02.10.2017 09:00 11,1 C 13,3 C 97 % 1021,1 hPa 0,0 l/m 4,8 km/h (1 Bft) O-NO 0,00 h 0,025 mm 0,4 UV-I 95 W/m 10,7 C 11,1 C 6,9 km/h (2 Bft) 97,05 %
02.10.2017 10:00 11,2 C 13,3 C 96 % 1021,2 hPa 0,0 l/m 5,8 km/h (2 Bft) O-NO 0,00 h 0,051 mm 0,6 UV-I 101 W/m 10,6 C 11,0 C 8,5 km/h (2 Bft) 97,94 %
02.10.2017 11:00 12,1 C 13,3 C 93 % 1021,1 hPa 0,0 l/m 4,7 km/h (1 Bft) NO 0,27 h 0,051 mm 1,4 UV-I 270 W/m 11,1 C 12,1 C 7,3 km/h (2 Bft) 99,44 %
02.10.2017 12:00 13,7 C 13,3 C 87 % 1020,7 hPa 0,0 l/m 3,6 km/h (1 Bft) NO 0,70 h 0,127 mm 2,1 UV-I 355 W/m 11,6 C 13,7 C 6,4 km/h (2 Bft) 98,62 %
02.10.2017 13:00 15,1 C 13,3 C 82 % 1020,0 hPa 0,0 l/m 3,6 km/h (1 Bft) NO 0,87 h 0,203 mm 2,7 UV-I 513 W/m 12,0 C 15,0 C 6,5 km/h (2 Bft) 99,37 %
02.10.2017 14:00 16,5 C 13,3 C 77 % 1019,1 hPa 0,0 l/m 4,6 km/h (1 Bft) NO 1,00 h 0,280 mm 2,5 UV-I 550 W/m 12,4 C 16,5 C 8,7 km/h (2 Bft) 98,26 %
02.10.2017 15:00 17,2 C 13,3 C 74 % 1018,2 hPa 0,0 l/m 4,9 km/h (1 Bft) O-NO 0,90 h 0,304 mm 1,5 UV-I 376 W/m 12,5 C 17,2 C 8,0 km/h (2 Bft) 97,13 %
02.10.2017 16:00 17,3 C 13,3 C 74 % 1017,6 hPa 0,0 l/m 5,1 km/h (1 Bft) O-NO 1,00 h 0,229 mm 0,7 UV-I 258 W/m 12,6 C 17,2 C 8,1 km/h (2 Bft) 96,30 %
02.10.2017 17:00 16,4 C 13,3 C 78 % 1017,5 hPa 0,0 l/m 5,0 km/h (1 Bft) O-NO 0,07 h 0,152 mm 0,0 UV-I 84 W/m 12,5 C 16,3 C 7,5 km/h (2 Bft) 98,60 %
02.10.2017 18:00 14,9 C 13,3 C 83 % 1017,3 hPa 0,0 l/m 4,0 km/h (1 Bft) O-NO 0,03 h 0,051 mm 0,0 UV-I 16 W/m 12,0 C 14,9 C 6,4 km/h (2 Bft) 98,86 %
02.10.2017 19:00 13,9 C 13,3 C 87 % 1017,3 hPa 0,0 l/m 1,8 km/h (1 Bft) O-NO 0,00 h 0,026 mm 0,0 UV-I 0 W/m 11,8 C 13,9 C 3,4 km/h (1 Bft) 99,30 %
02.10.2017 20:00 13,7 C 13,3 C 89 % 1017,7 hPa 0,0 l/m 1,2 km/h (1 Bft) W 0,00 h 0,000 mm 0,0 UV-I 0 W/m 12,0 C 13,7 C 2,8 km/h (1 Bft) 96,33 %
02.10.2017 21:00 13,4 C 13,3 C 92 % 1017,7 hPa 0,0 l/m 0,8 km/h (0 Bft) S-SW 0,00 h 0,000 mm 0,0 UV-I 0 W/m 12,2 C 13,4 C 1,6 km/h (1 Bft) 98,69 %
02.10.2017 22:00 13,3 C 13,3 C 94 % 1017,2 hPa 0,0 l/m 1,0 km/h (0 Bft) NW 0,00 h 0,000 mm 0,0 UV-I 0 W/m 12,3 C 13,3 C 2,5 km/h (1 Bft) 98,07 %
02.10.2017 23:00 13,3 C 13,3 C 95 % 1016,5 hPa 0,0 l/m 2,1 km/h (1 Bft) O-SO 0,00 h 0,000 mm 0,0 UV-I 0 W/m 12,5 C 13,3 C 3,9 km/h (1 Bft) 98,74 %
03.10.2017 00:00 13,5 C 13,3 C 95 % 1015,9 hPa 0,0 l/m 0,5 km/h (0 Bft) O 0,00 h 0,000 mm 0,0 UV-I 0 W/m 12,6 C 13,5 C 1,6 km/h (1 Bft) 96,24 %
03.10.2017 01:00 13,4 C 13,3 C 96 % 1015,7 hPa 0,4 l/m 0,3 km/h (0 Bft) SW 0,00 h 0,000 mm 0,0 UV-I 0 W/m 12,7 C 13,4 C 1,0 km/h (0 Bft) 99,04 %
03.10.2017 02:00 13,7 C 13,3 C 96 % 1015,3 hPa 0,0 l/m 4,4 km/h (1 Bft) S-SW 0,00 h 0,000 mm 0,0 UV-I 0 W/m 13,0 C 13,5 C 8,1 km/h (2 Bft) 97,73 %
03.10.2017 03:00 14,2 C 13,5 C 93 % 1014,9 hPa 0,0 l/m 8,7 km/h (2 Bft) S-SW 0,00 h 0,000 mm 0,0 UV-I 0 W/m 13,1 C 12,9 C 13,8 km/h (3 Bft) 98,64 %
03.10.2017 04:00 14,1 C 13,8 C 94 % 1014,5 hPa 0,2 l/m 6,9 km/h (2 Bft) S-SW 0,00 h 0,000 mm 0,0 UV-I 0 W/m 13,1 C 13,6 C 12,4 km/h (3 Bft) 96,31 %
03.10.2017 05:00 14,4 C 13,9 C 93 % 1013,7 hPa 0,0 l/m 8,5 km/h (2 Bft) S-SW 0,00 h 0,000 mm 0,0 UV-I 0 W/m 13,2 C 13,2 C 13,3 km/h (3 Bft) 99,40 %
03.10.2017 06:00 14,7 C 13,9 C 93 % 1012,7 hPa 0,0 l/m 4,1 km/h (1 Bft) SW 0,00 h 0,000 mm 0,0 UV-I 0 W/m 13,5 C 14,6 C 6,7 km/h (2 Bft) 97,87 %
03.10.2017 07:00 14,8 C 13,9 C 93 % 1011,9 hPa 0,2 l/m 2,1 km/h (1 Bft) SO 0,00 h 0,000 mm 0,0 UV-I 12 W/m 13,7 C 14,8 C 4,4 km/h (1 Bft) 99,08 %
03.10.2017 08:00 14,8 C 13,9 C 93 % 1010,8 hPa 0,0 l/m 3,7 km/h (1 Bft) SO 0,00 h 0,000 mm 0,0 UV-I 41 W/m 13,6 C 14,7 C 7,8 km/h (2 Bft) 96,01 %
03.10.2017 09:00 14,6 C 13,9 C 93 % 1010,0 hPa 1,2 l/m 4,6 km/h (1 Bft) O-SO 0,00 h 0,025 mm 0,5 UV-I 59 W/m 13,5 C 14,4 C 7,7 km/h (2 Bft) 99,53 %
03.10.2017 10:00 14,8 C 13,9 C 95 % 1010,3 hPa 1,4 l/m 3,2 km/h (1 Bft) O-SO 0,00 h 0,026 mm 0,5 UV-I 81 W/m 14,0 C 14,7 C 6,3 km/h (2 Bft) 97,49 %
03.10.2017 11:00 14,5 C 13,9 C 95 % 1012,8 hPa 1,8 l/m 17,2 km/h (3 Bft) W-SW 0,00 h 0,051 mm 0,8 UV-I 73 W/m 13,7 C 10,3 C 28,8 km/h (5 Bft) 98,59 %
03.10.2017 12:00 13,9 C 13,9 C 92 % 1015,8 hPa 0,4 l/m 21,0 km/h (4 Bft) W-SW 0,00 h 0,050 mm 0,9 UV-I 118 W/m 12,6 C 8,1 C 32,7 km/h (5 Bft) 95,75 %
03.10.2017 13:00 13,3 C 13,9 C 87 % 1016,5 hPa 0,6 l/m 21,1 km/h (4 Bft) SW 0,00 h 0,077 mm 0,6 UV-I 80 W/m 11,2 C 7,3 C 33,5 km/h (5 Bft) 99,44 %
03.10.2017 14:00 13,4 C 13,9 C 84 % 1017,2 hPa 0,0 l/m 23,8 km/h (4 Bft) W-SW 0,00 h 0,076 mm 0,9 UV-I 163 W/m 10,7 C 6,7 C 37,2 km/h (5 Bft) 97,23 %
03.10.2017 15:00 13,2 C 13,9 C 81 % 1018,1 hPa 0,0 l/m 15,6 km/h (3 Bft) W-SW 0,27 h 0,127 mm 0,8 UV-I 184 W/m 10,0 C 8,9 C 26,0 km/h (4 Bft) 98,04 %
03.10.2017 16:00 13,3 C 13,9 C 80 % 1018,7 hPa 0,0 l/m 13,1 km/h (3 Bft) W-SW 0,17 h 0,127 mm 0,6 UV-I 155 W/m 10,1 C 10,0 C 21,4 km/h (4 Bft) 96,43 %
03.10.2017 17:00 13,2 C 13,9 C 81 % 1019,3 hPa 0,0 l/m 10,4 km/h (2 Bft) W-SW 0,23 h 0,101 mm 0,0 UV-I 93 W/m 10,1 C 11,1 C 17,1 km/h (3 Bft) 99,23 %
03.10.2017 18:00 12,7 C 13,9 C 83 % 1020,2 hPa 0,0 l/m 10,5 km/h (2 Bft) W-SW 0,33 h 0,077 mm 0,0 UV-I 19 W/m 10,0 C 10,4 C 16,2 km/h (3 Bft) 98,00 %
03.10.2017 19:00 11,6 C 13,9 C 86 % 1021,2 hPa 0,0 l/m 9,0 km/h (2 Bft) SW 0,00 h 0,025 mm 0,0 UV-I 0 W/m 9,3 C 9,9 C 13,9 km/h (3 Bft) 98,25 %
03.10.2017 20:00 11,1 C 13,5 C 87 % 1022,5 hPa 0,0 l/m 8,6 km/h (2 Bft) SW 0,00 h 0,025 mm 0,0 UV-I 0 W/m 9,1 C 9,7 C 13,6 km/h (3 Bft) 97,16 %
03.10.2017 21:00 10,5 C 13,3 C 89 % 1023,6 hPa 0,0 l/m 7,8 km/h (2 Bft) W-SW 0,00 h 0,026 mm 0,0 UV-I 0 W/m 8,9 C 9,5 C 11,7 km/h (2 Bft) 99,53 %
03.10.2017 22:00 10,2 C 13,3 C 91 % 1024,2 hPa 0,0 l/m 8,1 km/h (2 Bft) SW 0,00 h 0,000 mm 0,0 UV-I 0 W/m 8,7 C 9,0 C 12,7 km/h (3 Bft) 98,23 %
03.10.2017 23:00 9,6 C 13,3 C 92 % 1024,7 hPa 0,0 l/m 6,8 km/h (2 Bft) SW 0,00 h 0,000 mm 0,0 UV-I 0 W/m 8,3 C 9,2 C 9,9 km/h (2 Bft) 97,08 %
04.10.2017 00:00 9,4 C 13,3 C 92 % 1024,7 hPa 0,0 l/m 7,2 km/h (2 Bft) SW 0,00 h 0,000 mm 0,0 UV-I 0 W/m 8,1 C 8,7 C 10,8 km/h (2 Bft) 98,42 %
04.10.2017 01:00 9,1 C 13,3 C 93 % 1024,7 hPa 0,0 l/m 10,6 km/h (2 Bft) SW 0,00 h 0,000 mm 0,0 UV-I 0 W/m 8,0 C 6,3 C 15,6 km/h (3 Bft) 99,22 %
04.10.2017 02:00 8,9 C 13,3 C 93 % 1024,7 hPa 0,0 l/m 8,4 km/h (2 Bft) SW 0,00 h 0,000 mm 0,0 UV-I 0 W/m 7,9 C 7,5 C 12,1 km/h (2 Bft) 97,07 %
04.10.2017 03:00 8,7 C 13,3 C 94 % 1024,8 hPa 0,0 l/m 4,6 km/h (1 Bft) SW 0,00 h 0,000 mm 0,0 UV-I 0 W/m 7,7 C 8,7 C 7,2 km/h (2 Bft) 97,72 %
04.10.2017 04:00 8,8 C 13,0 C 93 % 1024,7 hPa 0,0 l/m 3,6 km/h (1 Bft) S-SW 0,00 h 0,000 mm 0,0 UV-I 0 W/m 7,8 C 8,8 C 6,0 km/h (2 Bft) 99,16 %
04.10.2017 05:00 8,0 C 12,8 C 95 % 1024,6 hPa 0,0 l/m 2,1 km/h (1 Bft) S-SW 0,00 h 0,000 mm 0,0 UV-I 0 W/m 7,2 C 8,0 C 3,5 km/h (1 Bft) 97,48 %
04.10.2017 06:00 6,7 C 12,8 C 96 % 1024,4 hPa 0,0 l/m 0,4 km/h (0 Bft) S-SW 0,00 h 0,000 mm 0,0 UV-I 6 W/m 6,1 C 6,7 C 0,8 km/h (0 Bft) 97,94 %
04.10.2017 07:00 6,4 C 12,8 C 97 % 1024,7 hPa 0,0 l/m 1,1 km/h (0 Bft) S-SW 0,17 h 0,000 mm 0,0 UV-I 29 W/m 5,9 C 6,4 C 2,7 km/h (1 Bft) 98,09 %
04.10.2017 08:00 7,6 C 12,8 C 96 % 1025,0 hPa 0,0 l/m 0,6 km/h (0 Bft) S-SW 0,37 h 0,025 mm 0,0 UV-I 128 W/m 7,1 C 7,6 C 1,3 km/h (1 Bft) 99,12 %
04.10.2017 09:00 10,2 C 12,8 C 92 % 1025,0 hPa 0,0 l/m 0,9 km/h (0 Bft) S-SW 0,93 h 0,051 mm 0,9 UV-I 299 W/m 8,9 C 10,2 C 2,6 km/h (1 Bft) 95,53 %
04.10.2017 10:00 12,3 C 12,8 C 85 % 1024,9 hPa 0,0 l/m 4,4 km/h (1 Bft) S-SW 0,93 h 0,153 mm 1,6 UV-I 446 W/m 9,8 C 12,2 C 8,2 km/h (2 Bft) 98,99 %
04.10.2017 11:00 13,4 C 12,8 C 79 % 1024,5 hPa 0,0 l/m 2,6 km/h (1 Bft) W 1,00 h 0,228 mm 2,0 UV-I 432 W/m 9,8 C 13,4 C 5,6 km/h (1 Bft) 98,50 %
04.10.2017 12:00 14,3 C 12,8 C 76 % 1023,9 hPa 0,0 l/m 4,2 km/h (1 Bft) W-SW 1,00 h 0,229 mm 2,6 UV-I 489 W/m 10,0 C 14,3 C 8,2 km/h (2 Bft) 98,59 %
04.10.2017 13:00 15,5 C 12,8 C 72 % 1023,0 hPa 0,0 l/m 4,4 km/h (1 Bft) W 0,93 h 0,254 mm 2,9 UV-I 584 W/m 10,6 C 15,4 C 8,7 km/h (2 Bft) 98,97 %
04.10.2017 14:00 16,3 C 12,8 C 69 % 1022,1 hPa 0,0 l/m 4,7 km/h (1 Bft) W-SW 0,97 h 0,305 mm 2,1 UV-I 421 W/m 10,5 C 16,1 C 9,2 km/h (2 Bft) 98,09 %
04.10.2017 15:00 16,3 C 13,2 C 66 % 1021,2 hPa 0,0 l/m 3,6 km/h (1 Bft) W 0,73 h 0,254 mm 1,4 UV-I 317 W/m 10,0 C 16,3 C 8,1 km/h (2 Bft) 99,29 %
04.10.2017 16:00 15,8 C 13,3 C 68 % 1020,6 hPa 0,0 l/m 2,6 km/h (1 Bft) W-NW 0,77 h 0,177 mm 0,7 UV-I 208 W/m 10,0 C 15,8 C 6,1 km/h (2 Bft) 96,31 %
04.10.2017 17:00 15,1 C 13,3 C 71 % 1020,5 hPa 0,0 l/m 3,3 km/h (1 Bft) W 0,43 h 0,127 mm 0,0 UV-I 89 W/m 10,0 C 15,1 C 6,2 km/h (2 Bft) 97,96 %
04.10.2017 18:00 13,8 C 13,3 C 77 % 1020,2 hPa 0,0 l/m 3,3 km/h (1 Bft) W-SW 0,47 h 0,051 mm 0,0 UV-I 20 W/m 9,9 C 13,8 C 5,3 km/h (1 Bft) 98,20 %
04.10.2017 19:00 10,9 C 13,3 C 88 % 1020,3 hPa 0,0 l/m 1,2 km/h (1 Bft) W-SW 0,00 h 0,026 mm 0,0 UV-I 0 W/m 9,1 C 10,9 C 2,6 km/h (1 Bft) 99,37 %
04.10.2017 20:00 10,6 C 13,3 C 90 % 1020,2 hPa 0,0 l/m 3,3 km/h (1 Bft) S-SW 0,00 h 0,000 mm 0,0 UV-I 0 W/m 9,0 C 10,6 C 5,4 km/h (1 Bft) 96,67 %
04.10.2017 21:00 11,3 C 13,3 C 88 % 1020,4 hPa 0,0 l/m 7,0 km/h (2 Bft) SW 0,00 h 0,000 mm 0,0 UV-I 0 W/m 9,3 C 10,7 C 10,1 km/h (2 Bft) 98,15 %
04.10.2017 22:00 11,4 C 13,3 C 87 % 1020,3 hPa 0,0 l/m 7,4 km/h (2 Bft) SW 0,00 h 0,025 mm 0,0 UV-I 0 W/m 9,3 C 10,6 C 11,1 km/h (2 Bft) 98,96 %
04.10.2017 23:00 10,8 C 13,3 C 89 % 1020,1 hPa 0,0 l/m 7,9 km/h (2 Bft) SW 0,00 h 0,025 mm 0,0 UV-I 0 W/m 9,0 C 9,7 C 11,4 km/h (2 Bft) 97,79 %
05.10.2017 00:00 11,0 C 12,9 C 87 % 1020,0 hPa 0,0 l/m 9,4 km/h (2 Bft) W-SW 0,00 h 0,000 mm 0,0 UV-I 0 W/m 9,0 C 9,1 C 14,2 km/h (3 Bft) 97,36 %
05.10.2017 01:00 11,5 C 12,8 C 84 % 1019,7 hPa 0,0 l/m 11,3 km/h (2 Bft) SW 0,00 h 0,025 mm 0,0 UV-I 0 W/m 8,8 C 8,6 C 17,2 km/h (3 Bft) 97,82 %
05.10.2017 02:00 12,1 C 12,8 C 81 % 1019,8 hPa 0,0 l/m 10,7 km/h (2 Bft) W-SW 0,00 h 0,026 mm 0,0 UV-I 0 W/m 8,9 C 9,6 C 16,6 km/h (3 Bft) 99,79 %
05.10.2017 03:00 12,2 C 12,8 C 79 % 1019,2 hPa 0,0 l/m 12,1 km/h (2 Bft) SW 0,00 h 0,025 mm 0,0 UV-I 0 W/m 8,8 C 9,1 C 18,3 km/h (3 Bft) 97,48 %
05.10.2017 04:00 12,1 C 12,8 C 77 % 1018,3 hPa 0,0 l/m 11,4 km/h (2 Bft) SW 0,00 h 0,026 mm 0,0 UV-I 0 W/m 8,3 C 9,2 C 17,3 km/h (3 Bft) 97,17 %
05.10.2017 05:00 11,7 C 12,8 C 78 % 1017,4 hPa 0,0 l/m 10,6 km/h (2 Bft) SW 0,00 h 0,025 mm 0,0 UV-I 0 W/m 8,1 C 9,3 C 16,8 km/h (3 Bft) 97,98 %
05.10.2017 06:00 11,8 C 12,8 C 78 % 1016,0 hPa 0,0 l/m 9,5 km/h (2 Bft) W-SW 0,00 h 0,025 mm 0,0 UV-I 0 W/m 8,2 C 9,8 C 14,4 km/h (3 Bft) 99,45 %
05.10.2017 07:00 11,6 C 12,8 C 83 % 1015,1 hPa 0,0 l/m 5,4 km/h (1 Bft) W-SW 0,03 h 0,026 mm 0,0 UV-I 17 W/m 8,8 C 11,4 C 9,4 km/h (2 Bft) 97,58 %
05.10.2017 08:00 12,4 C 12,8 C 83 % 1014,2 hPa 0,0 l/m 3,1 km/h (1 Bft) SW 0,00 h 0,025 mm 0,0 UV-I 65 W/m 9,7 C 12,4 C 5,6 km/h (1 Bft) 97,39 %
05.10.2017 09:00 13,0 C 12,8 C 83 % 1013,8 hPa 0,0 l/m 3,1 km/h (1 Bft) SW 0,00 h 0,051 mm 0,0 UV-I 85 W/m 10,2 C 13,0 C 5,5 km/h (1 Bft) 97,66 %
05.10.2017 10:00 14,1 C 12,8 C 75 % 1012,9 hPa 0,0 l/m 7,4 km/h (2 Bft) W-SW 0,00 h 0,051 mm 0,7 UV-I 120 W/m 9,8 C 13,4 C 11,7 km/h (2 Bft) 99,26 %
05.10.2017 11:00 16,2 C 12,8 C 62 % 1011,9 hPa 0,0 l/m 13,8 km/h (3 Bft) W-SW 0,00 h 0,076 mm 1,3 UV-I 223 W/m 8,7 C 13,1 C 21,4 km/h (4 Bft) 98,07 %
05.10.2017 12:00 18,1 C 12,8 C 48 % 1010,9 hPa 0,0 l/m 11,4 km/h (2 Bft) W-SW 0,00 h 0,178 mm 1,6 UV-I 244 W/m 6,8 C 16,1 C 18,0 km/h (3 Bft) 98,08 %
05.10.2017 13:00 20,9 C 12,8 C 33 % 1009,6 hPa 0,0 l/m 18,2 km/h (3 Bft) W-SW 0,73 h 0,228 mm 2,6 UV-I 396 W/m 3,8 C 17,7 C 27,5 km/h (4 Bft) 96,70 %
05.10.2017 14:00 22,2 C 12,8 C 30 % 1008,2 hPa 0,0 l/m 21,0 km/h (4 Bft) W-SW 1,00 h 0,458 mm 2,5 UV-I 529 W/m 3,8 C 19,0 C 33,1 km/h (5 Bft) 99,71 %
05.10.2017 15:00 22,8 C 12,8 C 29 % 1007,0 hPa 0,0 l/m 19,2 km/h (3 Bft) W-SW 0,83 h 0,533 mm 1,5 UV-I 409 W/m 4,0 C 20,0 C 30,4 km/h (5 Bft) 97,81 %
05.10.2017 16:00 22,5 C 12,8 C 27 % 1006,0 hPa 0,0 l/m 25,4 km/h (4 Bft) W-SW 0,73 h 0,432 mm 0,7 UV-I 248 W/m 2,6 C 18,8 C 40,3 km/h (6 Bft) 99,26 %
05.10.2017 17:00 21,8 C 12,8 C 30 % 1005,4 hPa 0,0 l/m 22,5 km/h (4 Bft) W-SW 0,27 h 0,432 mm 0,0 UV-I 76 W/m 3,5 C 18,2 C 34,7 km/h (5 Bft) 96,19 %
05.10.2017 18:00 20,5 C 12,8 C 37 % 1005,6 hPa 0,0 l/m 20,5 km/h (4 Bft) W-SW 0,00 h 0,279 mm 0,0 UV-I 7 W/m 5,4 C 16,8 C 33,2 km/h (5 Bft) 98,05 %
05.10.2017 19:00 18,2 C 12,8 C 49 % 1007,2 hPa 0,0 l/m 16,8 km/h (3 Bft) W-SW 0,00 h 0,178 mm 0,0 UV-I 0 W/m 7,1 C 14,8 C 31,5 km/h (5 Bft) 98,12 %
05.10.2017 20:00 14,3 C 12,8 C 76 % 1009,3 hPa 0,4 l/m 17,4 km/h (3 Bft) W 0,00 h 0,127 mm 0,0 UV-I 0 W/m 10,0 C 9,8 C 31,4 km/h (5 Bft) 99,17 %
05.10.2017 21:00 12,5 C 12,8 C 89 % 1010,1 hPa 1,4 l/m 18,9 km/h (3 Bft) W-SW 0,00 h 0,051 mm 0,0 UV-I 0 W/m 10,8 C 6,9 C 30,4 km/h (5 Bft) 96,09 %
05.10.2017 22:00 10,6 C 12,8 C 89 % 1011,0 hPa 1,4 l/m 16,8 km/h (3 Bft) W-SW 0,00 h 0,025 mm 0,0 UV-I 0 W/m 8,9 C 5,3 C 26,6 km/h (4 Bft) 99,01 %
05.10.2017 23:00 10,3 C 12,8 C 91 % 1012,1 hPa 0,2 l/m 16,1 km/h (3 Bft) W-SW 0,00 h 0,025 mm 0,0 UV-I 0 W/m 8,9 C 5,1 C 24,4 km/h (4 Bft) 97,97 %
06.10.2017 00:00 10,1 C 12,8 C 92 % 1012,8 hPa 0,0 l/m 15,3 km/h (3 Bft) SW 0,00 h 0,000 mm 0,0 UV-I 0 W/m 8,9 C 5,2 C 22,8 km/h (4 Bft) 98,99 %
06.10.2017 01:00 9,8 C 12,8 C 91 % 1013,2 hPa 0,0 l/m 16,3 km/h (3 Bft) SW 0,00 h 0,025 mm 0,0 UV-I 0 W/m 8,4 C 4,5 C 24,7 km/h (4 Bft) 96,24 %
06.10.2017 02:00 9,6 C 12,8 C 91 % 1013,7 hPa 0,2 l/m 13,1 km/h (3 Bft) SW 0,00 h 0,026 mm 0,0 UV-I 0 W/m 8,2 C 5,5 C 19,6 km/h (3 Bft) 99,29 %
06.10.2017 03:00 9,1 C 12,8 C 92 % 1013,7 hPa 0,2 l/m 13,5 km/h (3 Bft) SW 0,00 h 0,025 mm 0,0 UV-I 0 W/m 7,8 C 4,8 C 20,9 km/h (4 Bft) 97,59 %
06.10.2017 04:00 8,4 C 12,8 C 92 % 1013,8 hPa 0,0 l/m 11,8 km/h (2 Bft) SW 0,00 h 0,026 mm 0,0 UV-I 0 W/m 7,1 C 4,8 C 17,8 km/h (3 Bft) 98,08 %
06.10.2017 05:00 8,0 C 12,8 C 92 % 1013,8 hPa 0,0 l/m 11,5 km/h (2 Bft) SW 0,00 h 0,000 mm 0,0 UV-I 0 W/m 6,7 C 4,5 C 17,5 km/h (3 Bft) 97,10 %
06.10.2017 06:00 7,8 C 12,8 C 93 % 1013,8 hPa 0,0 l/m 8,7 km/h (2 Bft) W-SW 0,00 h 0,000 mm 0,0 UV-I 0 W/m 6,7 C 6,1 C 13,8 km/h (3 Bft) 99,42 %
06.10.2017 07:00 7,8 C 12,8 C 92 % 1013,7 hPa 0,0 l/m 9,5 km/h (2 Bft) W-SW 0,40 h 0,000 mm 0,0 UV-I 29 W/m 6,6 C 5,6 C 15,1 km/h (3 Bft) 97,68 %
06.10.2017 08:00 8,6 C 12,8 C 90 % 1014,0 hPa 0,0 l/m 11,9 km/h (2 Bft) W-SW 0,37 h 0,025 mm 0,0 UV-I 99 W/m 6,9 C 5,0 C 17,6 km/h (3 Bft) 97,48 %
06.10.2017 09:00 9,3 C 12,8 C 84 % 1014,2 hPa 0,0 l/m 14,4 km/h (3 Bft) W-SW 0,00 h 0,051 mm 0,5 UV-I 114 W/m 6,8 C 4,7 C 23,4 km/h (4 Bft) 98,14 %
06.10.2017 10:00 10,4 C 12,8 C 77 % 1014,2 hPa 0,0 l/m 17,6 km/h (3 Bft) W 0,77 h 0,076 mm 1,2 UV-I 423 W/m 6,5 C 4,8 C 28,4 km/h (4 Bft) 99,63 %
06.10.2017 11:00 10,7 C 12,8 C 72 % 1014,5 hPa 0,0 l/m 15,5 km/h (3 Bft) W-SW 0,13 h 0,229 mm 1,2 UV-I 240 W/m 5,7 C 5,9 C 27,7 km/h (4 Bft) 98,29 %
06.10.2017 12:00 11,1 C 12,8 C 68 % 1014,6 hPa 0,0 l/m 16,6 km/h (3 Bft) W-SW 0,07 h 0,177 mm 0,9 UV-I 187 W/m 5,3 C 5,9 C 27,6 km/h (4 Bft) 97,84 %
06.10.2017 13:00 10,9 C 12,8 C 67 % 1014,9 hPa 0,0 l/m 14,1 km/h (3 Bft) W-SW 0,00 h 0,153 mm 0,8 UV-I 165 W/m 5,1 C 6,8 C 24,6 km/h (4 Bft) 97,19 %
06.10.2017 14:00 11,3 C 12,8 C 67 % 1014,8 hPa 0,0 l/m 15,1 km/h (3 Bft) W-SW 0,00 h 0,127 mm 0,8 UV-I 171 W/m 5,4 C 6,8 C 23,4 km/h (4 Bft) 99,27 %
06.10.2017 15:00 10,7 C 12,8 C 72 % 1015,0 hPa 0,2 l/m 13,5 km/h (3 Bft) W-SW 0,13 h 0,127 mm 0,6 UV-I 144 W/m 5,8 C 6,8 C 22,3 km/h (4 Bft) 97,85 %
06.10.2017 16:00 10,0 C 12,8 C 78 % 1015,1 hPa 0,0 l/m 13,9 km/h (3 Bft) W-SW 0,20 h 0,127 mm 0,5 UV-I 126 W/m 6,4 C 5,7 C 22,1 km/h (4 Bft) 97,86 %
06.10.2017 17:00 7,4 C 12,6 C 89 % 1015,7 hPa 3,8 l/m 9,2 km/h (2 Bft) W-SW 0,00 h 0,076 mm 0,0 UV-I 16 W/m 5,7 C 5,2 C 17,1 km/h (3 Bft) 96,33 %
06.10.2017 18:00 7,7 C 12,2 C 92 % 1016,2 hPa 0,0 l/m 9,8 km/h (2 Bft) W-SW 0,03 h 0,025 mm 0,0 UV-I 10 W/m 6,4 C 5,2 C 15,1 km/h (3 Bft) 99,14 %
06.10.2017 19:00 8,1 C 12,2 C 90 % 1016,9 hPa 0,0 l/m 10,9 km/h (2 Bft) W-SW 0,00 h 0,000 mm 0,0 UV-I 0 W/m 6,6 C 5,1 C 17,3 km/h (3 Bft) 97,80 %
06.10.2017 20:00 8,1 C 12,2 C 89 % 1017,7 hPa 0,0 l/m 19,2 km/h (3 Bft) W-SW 0,00 h 0,026 mm 0,0 UV-I 0 W/m 6,4 C 1,1 C 29,2 km/h (5 Bft) 97,84 %
06.10.2017 21:00 7,7 C 12,2 C 90 % 1018,3 hPa 0,0 l/m 18,2 km/h (3 Bft) W-SW 0,00 h 0,025 mm 0,0 UV-I 0 W/m 6,2 C 1,1 C 27,5 km/h (4 Bft) 96,44 %
06.10.2017 22:00 7,8 C 12,2 C 90 % 1018,8 hPa 0,0 l/m 16,7 km/h (3 Bft) W-SW 0,00 h 0,026 mm 0,0 UV-I 0 W/m 6,2 C 1,8 C 25,7 km/h (4 Bft) 98,35 %
06.10.2017 23:00 7,7 C 12,2 C 90 % 1019,0 hPa 0,0 l/m 14,8 km/h (3 Bft) W-SW 0,00 h 0,025 mm 0,0 UV-I 0 W/m 6,2 C 2,5 C 22,3 km/h (4 Bft) 97,96 %
07.10.2017 00:00 7,9 C 12,2 C 90 % 1019,3 hPa 0,4 l/m 12,7 km/h (3 Bft) SW 0,00 h 0,000 mm 0,0 UV-I 0 W/m 6,5 C 3,8 C 19,2 km/h (3 Bft) 97,47 %
07.10.2017 01:00 7,9 C 12,2 C 93 % 1019,5 hPa 0,4 l/m 14,5 km/h (3 Bft) W-SW 0,00 h 0,025 mm 0,0 UV-I 0 W/m 6,8 C 3,0 C 22,7 km/h (4 Bft) 97,19 %
07.10.2017 02:00 8,3 C 12,2 C 91 % 1019,9 hPa 0,0 l/m 18,4 km/h (3 Bft) W-SW 0,00 h 0,026 mm 0,0 UV-I 0 W/m 6,9 C 1,7 C 29,5 km/h (5 Bft) 98,89 %
07.10.2017 03:00 8,3 C 12,2 C 91 % 1020,2 hPa 0,0 l/m 13,3 km/h (3 Bft) W-SW 0,00 h 0,025 mm 0,0 UV-I 0 W/m 6,9 C 3,9 C 22,0 km/h (4 Bft) 97,92 %
07.10.2017 04:00 8,4 C 12,1 C 90 % 1020,6 hPa 0,0 l/m 14,6 km/h (3 Bft) W-SW 0,00 h 0,026 mm 0,0 UV-I 0 W/m 6,9 C 3,4 C 22,8 km/h (4 Bft) 96,35 %
07.10.2017 05:00 8,5 C 11,7 C 90 % 1020,8 hPa 0,0 l/m 14,4 km/h (3 Bft) W-SW 0,00 h 0,025 mm 0,0 UV-I 0 W/m 6,9 C 3,7 C 23,4 km/h (4 Bft) 98,37 %
07.10.2017 06:00 8,5 C 11,7 C 89 % 1021,3 hPa 0,0 l/m 14,1 km/h (3 Bft) W-SW 0,00 h 0,025 mm 0,0 UV-I 0 W/m 6,8 C 3,8 C 21,7 km/h (4 Bft) 98,94 %
07.10.2017 07:00 8,5 C 11,7 C 90 % 1021,6 hPa 0,0 l/m 11,4 km/h (2 Bft) W-SW 0,00 h 0,026 mm 0,0 UV-I 8 W/m 6,8 C 5,2 C 17,6 km/h (3 Bft) 98,35 %
07.10.2017 08:00 8,8 C 11,7 C 89 % 1021,9 hPa 0,0 l/m 15,4 km/h (3 Bft) W-SW 0,00 h 0,025 mm 0,0 UV-I 46 W/m 7,1 C 3,6 C 23,7 km/h (4 Bft) 96,24 %
07.10.2017 09:00 9,3 C 11,7 C 85 % 1022,3 hPa 0,0 l/m 14,8 km/h (3 Bft) W-SW 0,00 h 0,051 mm 0,0 UV-I 63 W/m 6,9 C 4,5 C 23,2 km/h (4 Bft) 97,92 %
07.10.2017 10:00 9,6 C 11,7 C 82 % 1022,6 hPa 0,0 l/m 15,7 km/h (3 Bft) W-SW 0,00 h 0,051 mm 0,7 UV-I 133 W/m 6,7 C 4,5 C 24,2 km/h (4 Bft) 97,72 %
07.10.2017 11:00 10,3 C 11,7 C 80 % 1022,2 hPa 0,0 l/m 15,6 km/h (3 Bft) W-SW 0,00 h 0,101 mm 0,8 UV-I 168 W/m 7,0 C 5,4 C 24,7 km/h (4 Bft) 98,03 %
07.10.2017 12:00 10,9 C 11,7 C 76 % 1022,0 hPa 0,0 l/m 13,3 km/h (3 Bft) W-SW 0,00 h 0,102 mm 1,5 UV-I 199 W/m 6,9 C 7,0 C 22,3 km/h (4 Bft) 96,38 %
07.10.2017 13:00 11,1 C 11,7 C 77 % 1021,5 hPa 0,0 l/m 14,9 km/h (3 Bft) W-SW 0,03 h 0,152 mm 1,0 UV-I 188 W/m 7,1 C 6,6 C 23,1 km/h (4 Bft) 96,87 %
07.10.2017 14:00 11,0 C 11,7 C 78 % 1020,9 hPa 0,0 l/m 15,1 km/h (3 Bft) W-SW 0,00 h 0,127 mm 0,8 UV-I 174 W/m 7,3 C 6,4 C 22,9 km/h (4 Bft) 98,77 %
07.10.2017 15:00 11,4 C 11,7 C 75 % 1020,5 hPa 0,0 l/m 16,5 km/h (3 Bft) SW 0,13 h 0,127 mm 0,6 UV-I 154 W/m 7,1 C 6,3 C 25,0 km/h (4 Bft) 97,42 %
07.10.2017 16:00 11,4 C 11,7 C 72 % 1019,7 hPa 0,0 l/m 16,1 km/h (3 Bft) W-SW 0,20 h 0,127 mm 0,5 UV-I 153 W/m 6,5 C 6,5 C 24,5 km/h (4 Bft) 97,57 %
07.10.2017 17:00 11,5 C 11,7 C 70 % 1018,9 hPa 0,0 l/m 12,7 km/h (3 Bft) W-SW 0,77 h 0,127 mm 0,0 UV-I 116 W/m 6,2 C 8,1 C 20,0 km/h (4 Bft) 96,25 %
07.10.2017 18:00 10,1 C 11,7 C 76 % 1018,4 hPa 0,0 l/m 6,1 km/h (2 Bft) SW 0,37 h 0,102 mm 0,0 UV-I 18 W/m 6,0 C 9,9 C 9,3 km/h (2 Bft) 98,71 %
07.10.2017 19:00 9,0 C 11,7 C 79 % 1017,9 hPa 0,0 l/m 5,4 km/h (1 Bft) S-SW 0,00 h 0,025 mm 0,0 UV-I 0 W/m 5,5 C 8,8 C 9,2 km/h (2 Bft) 98,60 %
07.10.2017 20:00 9,2 C 11,7 C 80 % 1017,6 hPa 0,0 l/m 6,2 km/h (2 Bft) S-SW 0,00 h 0,026 mm 0,0 UV-I 0 W/m 5,8 C 8,9 C 10,9 km/h (2 Bft) 97,19 %
07.10.2017 21:00 8,9 C 11,7 C 82 % 1016,7 hPa 0,0 l/m 6,9 km/h (2 Bft) S-SW 0,00 h 0,025 mm 0,0 UV-I 0 W/m 6,0 C 8,3 C 10,3 km/h (2 Bft) 97,60 %
07.10.2017 22:00 8,9 C 11,7 C 82 % 1016,1 hPa 0,0 l/m 6,3 km/h (2 Bft) W-SW 0,00 h 0,026 mm 0,0 UV-I 0 W/m 6,1 C 8,6 C 9,3 km/h (2 Bft) 98,23 %
07.10.2017 23:00 8,7 C 11,7 C 84 % 1015,3 hPa 0,0 l/m 6,7 km/h (2 Bft) SW 0,00 h 0,025 mm 0,0 UV-I 0 W/m 6,1 C 8,3 C 10,2 km/h (2 Bft) 99,40 %
08.10.2017 00:00 9,1 C 11,7 C 82 % 1014,7 hPa 0,0 l/m 9,9 km/h (2 Bft) SW 0,00 h 0,000 mm 0,0 UV-I 0 W/m 6,1 C 6,7 C 15,1 km/h (3 Bft) 93,16 %
08.10.2017 01:00 9,6 C 11,7 C 79 % 1014,5 hPa 0,0 l/m 13,5 km/h (3 Bft) SW 0,00 h 0,025 mm 0,0 UV-I 0 W/m 6,1 C 5,4 C 19,3 km/h (3 Bft) 98,53 %
08.10.2017 02:00 10,2 C 11,7 C 72 % 1014,3 hPa 0,0 l/m 12,3 km/h (3 Bft) W-SW 0,00 h 0,026 mm 0,0 UV-I 0 W/m 5,3 C 6,7 C 18,7 km/h (3 Bft) 98,08 %
08.10.2017 03:00 11,0 C 11,7 C 68 % 1014,4 hPa 0,0 l/m 14,0 km/h (3 Bft) W-SW 0,00 h 0,051 mm 0,0 UV-I 0 W/m 5,4 C 6,8 C 22,1 km/h (4 Bft) 99,25 %
08.10.2017 04:00 10,0 C 11,7 C 77 % 1014,4 hPa 0,0 l/m 9,8 km/h (2 Bft) W-SW 0,00 h 0,050 mm 0,0 UV-I 0 W/m 6,2 C 7,9 C 15,9 km/h (3 Bft) 96,67 %
08.10.2017 05:00 9,0 C 11,7 C 86 % 1014,3 hPa 0,0 l/m 8,5 km/h (2 Bft) W-SW 0,00 h 0,026 mm 0,0 UV-I 0 W/m 6,7 C 7,5 C 14,0 km/h (3 Bft) 98,49 %
08.10.2017 06:00 8,5 C 11,7 C 89 % 1014,2 hPa 0,0 l/m 8,8 km/h (2 Bft) W-SW 0,00 h 0,025 mm 0,0 UV-I 0 W/m 6,8 C 6,8 C 13,8 km/h (3 Bft) 98,35 %
08.10.2017 07:00 8,4 C 11,2 C 91 % 1014,2 hPa 0,4 l/m 11,5 km/h (2 Bft) W-SW 0,00 h 0,000 mm 0,0 UV-I 10 W/m 7,0 C 5,2 C 17,7 km/h (3 Bft) 99,45 %
08.10.2017 08:00 8,8 C 11,1 C 90 % 1014,5 hPa 0,6 l/m 16,9 km/h (3 Bft) W-SW 0,00 h 0,026 mm 0,0 UV-I 34 W/m 7,2 C 2,9 C 26,3 km/h (4 Bft) 96,05 %
08.10.2017 09:00 8,8 C 11,1 C 91 % 1014,8 hPa 0,4 l/m 17,5 km/h (3 Bft) SW 0,00 h 0,025 mm 0,0 UV-I 41 W/m 7,4 C 2,7 C 27,6 km/h (4 Bft) 98,65 %
08.10.2017 10:00 9,0 C 11,1 C 92 % 1015,2 hPa 0,4 l/m 17,2 km/h (3 Bft) SW 0,00 h 0,025 mm 0,2 UV-I 70 W/m 7,7 C 3,0 C 26,0 km/h (4 Bft) 97,89 %
08.10.2017 11:00 9,1 C 11,1 C 92 % 1015,6 hPa 0,2 l/m 16,2 km/h (3 Bft) W-SW 0,00 h 0,051 mm 0,4 UV-I 80 W/m 7,9 C 3,6 C 24,7 km/h (4 Bft) 99,43 %
08.10.2017 12:00 9,5 C 11,1 C 91 % 1015,8 hPa 0,0 l/m 17,4 km/h (3 Bft) SW 0,00 h 0,051 mm 0,6 UV-I 87 W/m 8,1 C 3,7 C 26,1 km/h (4 Bft) 96,01 %
08.10.2017 13:00 9,8 C 11,1 C 90 % 1015,8 hPa 0,0 l/m 15,6 km/h (3 Bft) SW 0,00 h 0,051 mm 0,5 UV-I 93 W/m 8,3 C 4,7 C 24,2 km/h (4 Bft) 99,06 %
08.10.2017 14:00 10,2 C 11,1 C 91 % 1015,7 hPa 0,0 l/m 13,6 km/h (3 Bft) W-SW 0,00 h 0,051 mm 0,5 UV-I 74 W/m 8,9 C 6,0 C 21,0 km/h (4 Bft) 97,52 %
08.10.2017 15:00 10,4 C 11,1 C 92 % 1015,9 hPa 0,0 l/m 14,3 km/h (3 Bft) W-SW 0,00 h 0,050 mm 0,2 UV-I 70 W/m 9,1 C 5,9 C 21,7 km/h (4 Bft) 99,03 %
08.10.2017 16:00 10,7 C 11,1 C 91 % 1015,8 hPa 0,0 l/m 15,2 km/h (3 Bft) SW 0,00 h 0,051 mm 0,0 UV-I 79 W/m 9,2 C 5,9 C 24,0 km/h (4 Bft) 96,25 %
08.10.2017 17:00 10,7 C 11,1 C 90 % 1015,9 hPa 0,0 l/m 14,4 km/h (3 Bft) SW 0,00 h 0,051 mm 0,0 UV-I 41 W/m 9,2 C 6,4 C 21,7 km/h (4 Bft) 99,51 %
08.10.2017 18:00 10,3 C 11,1 C 91 % 1016,2 hPa 0,0 l/m 14,6 km/h (3 Bft) SW 0,07 h 0,025 mm 0,0 UV-I 11 W/m 9,0 C 5,7 C 22,3 km/h (4 Bft) 98,22 %
08.10.2017 19:00 9,9 C 11,1 C 92 % 1016,6 hPa 0,0 l/m 13,9 km/h (3 Bft) SW 0,00 h 0,026 mm 0,0 UV-I 0 W/m 8,7 C 5,5 C 20,8 km/h (4 Bft) 98,59 %
08.10.2017 20:00 10,1 C 11,1 C 91 % 1016,9 hPa 0,0 l/m 15,3 km/h (3 Bft) SW 0,00 h 0,025 mm 0,0 UV-I 0 W/m 8,8 C 5,2 C 22,8 km/h (4 Bft) 96,79 %
08.10.2017 21:00 10,5 C 11,1 C 90 % 1016,9 hPa 0,0 l/m 16,0 km/h (3 Bft) SW 0,00 h 0,026 mm 0,0 UV-I 0 W/m 9,0 C 5,4 C 24,0 km/h (4 Bft) 98,83 %
08.10.2017 22:00 10,7 C 11,1 C 89 % 1016,9 hPa 0,0 l/m 15,8 km/h (3 Bft) SW 0,00 h 0,025 mm 0,0 UV-I 0 W/m 9,0 C 5,7 C 24,0 km/h (4 Bft) 98,75 %
08.10.2017 23:00 10,8 C 11,1 C 88 % 1017,0 hPa 0,0 l/m 16,3 km/h (3 Bft) SW 0,00 h 0,025 mm 0,0 UV-I 0 W/m 9,0 C 5,7 C 25,1 km/h (4 Bft) 98,10 %
Min-Datum _ 04.10.17 08.10.17 05.10.17 05.10.17 - 02.10.17 - - - - - 05.10.17 06.10.17 02.10.17 08.10.17
_ Min-Zeit 07:02 07:00 16:36 17:52 - 00:42 - - - - - 16:40 22:14 00:42 00:02
Minimum _ 5,9 C 11,1 C 25 % 1005,2 hPa - 0,0 km/h (0 Bft) - - - - - 1,7 C -0,6 C 0,0 km/h (0 Bft) 6,25 %
Max-Datum _ 05.10.17 03.10.17 02.10.17 04.10.17 06.10.17 03.10.17 - 02.10.17 05.10.17 04.10.17 04.10.17 03.10.17 05.10.17 05.10.17 02.10.17
_ Max-Zeit 15:44 02:26 02:52 08:38 17:04 11:26 - 12:03 15:02 13:46 13:52 10:48 15:36 16:40 00:02
Maximum _ 23,1 C 13,9 C 98 % 1025,1 hPa 3,8 l/m 32,3 km/h
W-SW (5 Bft)
- 0,05 h 0,533 mm 3,2 UV-I 742 W/m 14,3 C 21,2 C 56,3 km/h
W-SW (7 Bft)
100,00 %
Durchschnitt _ 11,6 C 12,7 C 84 % 1017,4 hPa #16,8 l/m 10,1 km/h (2 Bft) W-SW #21:48 h #11,150 mm 1,1 UV-I 159 W/m 8,6 C 9,1 C 16,0 km/h (3 Bft) 98,00 %